Shawbury (EGOS)

METAR

EGOS 161150Z AUTO 27009KT 9999 SCT050/// 06/03 Q1017 RERA

QNH
1017
TEMP
6 °C
TAF

TAF TAF EGOS 171634Z 1718/1821 CNL